Time;durP1;ratioP1;P1;durP2;ratioP2;P2;SDS_P1;SDS_P2;PMS_P1;PMS_P2;Temp;Humidity;BMP_temperature;BMP_pressure;BME280_temperature;BME280_humidity;BME280_pressure;Samples;Min_cycle;Max_cycle;Signal;HPM_P1;HPM_P2
2022/01/18 00:00:55;;;;;;;;;;;12.20;62.20;;;;;;5001066;28;19925;-87
2022/01/18 00:03:21;;;;;;;;;;;12.20;62.30;;;;;;5029306;28;19924;-88
2022/01/18 00:05:49;;;;;;;;;;;12.20;62.30;;;;;;4995951;28;20440;-86
2022/01/18 00:08:16;;;;;;;;;;;12.20;62.30;;;;;;5005929;28;19921;-87
2022/01/18 00:10:43;;;;;;;;;;;12.20;62.40;;;;;;5012961;28;20341;-88
2022/01/18 00:13:12;;;;;;;;;;;12.20;62.40;;;;;;5012159;28;19945;-88
2022/01/18 00:15:54;;;;;;;;;;;12.20;62.60;;;;;;5007543;28;19915;-87
2022/01/18 00:18:20;;;;;;;;;;;12.20;62.60;;;;;;5032654;28;19921;-87
2022/01/18 00:23:12;;;;;;;;;;;12.20;62.70;;;;;;5036552;28;20424;-88
2022/01/18 00:25:41;;;;;;;;;;;12.20;62.70;;;;;;5036021;28;19995;-87
2022/01/18 00:28:07;;;;;;;;;;;12.20;62.60;;;;;;5004427;28;19913;-87
2022/01/18 00:33:23;;;;;;;;;;;12.20;62.80;;;;;;5023877;28;19924;-87
2022/01/18 00:35:58;;;;;;;;;;;12.20;62.90;;;;;;5015170;28;19973;-88
2022/01/18 00:38:31;;;;;;;;;;;12.20;63.00;;;;;;5004668;28;19917;-87
2022/01/18 00:40:57;;;;;;;;;;;12.20;62.90;;;;;;5030931;28;19928;-88
2022/01/18 00:43:23;;;;;;;;;;;12.20;62.80;;;;;;5018514;28;19916;-87
2022/01/18 00:45:48;;;;;;;;;;;12.10;62.90;;;;;;5017590;28;20023;-88
2022/01/18 00:48:14;;;;;;;;;;;12.20;62.90;;;;;;5033407;28;19917;-87
2022/01/18 00:50:39;;;;;;;;;;;12.20;62.90;;;;;;4997362;28;19918;-87
2022/01/18 00:53:10;;;;;;;;;;;12.20;62.90;;;;;;4994390;28;19921;-87
2022/01/18 00:55:47;;;;;;;;;;;12.20;62.90;;;;;;4997159;28;19918;-87
2022/01/18 00:58:13;;;;;;;;;;;12.30;62.90;;;;;;5032406;28;19923;-87
2022/01/18 01:00:38;;;;;;;;;;;12.30;62.80;;;;;;5033880;28;19995;-86
2022/01/18 01:03:04;;;;;;;;;;;12.30;62.90;;;;;;4999620;28;19971;-87
2022/01/18 01:05:29;;;;;;;;;;;12.30;62.90;;;;;;5014900;28;20288;-87
2022/01/18 01:07:54;;;;;;;;;;;12.30;62.80;;;;;;5000118;28;19963;-87
2022/01/18 01:10:20;;;;;;;;;;;12.30;62.80;;;;;;5013662;28;20489;-88
2022/01/18 01:12:46;;;;;;;;;;;12.40;62.80;;;;;;4996250;28;20034;-87
2022/01/18 01:15:14;;;;;;;;;;;12.40;62.70;;;;;;4995979;28;20205;-88
2022/01/18 01:17:48;;;;;;;;;;;12.40;62.70;;;;;;5015275;28;19952;-88
2022/01/18 01:41:40;;;;;;;;;;;12.30;62.20;;;;;;4977713;28;20284;-88
2022/01/18 01:42:55;;;;;;;;;;;12.30;62.20;;;;;;5014463;28;19968;-88
2022/01/18 01:45:17;;;;;;;;;;;12.30;62.30;;;;;;5032224;28;19913;-87
2022/01/18 01:47:46;;;;;;;;;;;12.30;62.30;;;;;;5016379;28;19927;-87
2022/01/18 01:50:17;;;;;;;;;;;12.40;62.30;;;;;;5015323;28;19914;-87
2022/01/18 01:52:43;;;;;;;;;;;12.40;62.30;;;;;;5014273;28;19917;-87
2022/01/18 01:55:09;;;;;;;;;;;12.40;62.40;;;;;;5013099;28;19920;-87
2022/01/18 01:57:34;;;;;;;;;;;12.30;62.50;;;;;;5026585;28;19925;-87
2022/01/18 02:00:03;;;;;;;;;;;12.40;62.50;;;;;;5015926;28;19924;-87
2022/01/18 02:02:30;;;;;;;;;;;12.40;62.40;;;;;;5029894;28;19921;-87
2022/01/18 02:04:55;;;;;;;;;;;12.40;62.20;;;;;;5007835;28;19948;-87
2022/01/18 02:07:21;;;;;;;;;;;12.30;61.90;;;;;;5011643;28;19929;-87
2022/01/18 02:09:46;;;;;;;;;;;12.20;61.60;;;;;;5031300;28;20369;-88
2022/01/18 02:12:12;;;;;;;;;;;12.10;61.60;;;;;;5030773;28;20363;-88
2022/01/18 02:14:40;;;;;;;;;;;12.10;61.80;;;;;;5027371;28;19918;-87
2022/01/18 02:22:33;;;;;;;;;;;12.10;62.40;;;;;;5020798;28;20261;-88
2022/01/18 02:24:59;;;;;;;;;;;12.20;62.60;;;;;;4993790;28;19914;-88
2022/01/18 02:27:25;;;;;;;;;;;12.20;62.60;;;;;;5014339;28;20364;-88
2022/01/18 02:29:50;;;;;;;;;;;12.30;62.60;;;;;;5014362;28;19920;-88
2022/01/18 02:32:15;;;;;;;;;;;12.30;62.60;;;;;;5007770;28;19967;-87
2022/01/18 02:34:41;;;;;;;;;;;12.20;62.60;;;;;;5027235;28;19909;-87
2022/01/18 02:37:07;;;;;;;;;;;12.30;62.60;;;;;;5032668;28;20022;-88
2022/01/18 02:39:33;;;;;;;;;;;12.20;62.60;;;;;;5003359;28;19924;-87
2022/01/18 02:42:00;;;;;;;;;;;12.20;62.70;;;;;;5004497;28;19917;-87
2022/01/18 02:44:27;;;;;;;;;;;12.20;62.80;;;;;;4998389;28;19964;-88
2022/01/18 02:46:53;;;;;;;;;;;12.30;62.80;;;;;;5030014;28;19992;-87
2022/01/18 02:49:18;;;;;;;;;;;12.30;62.80;;;;;;5033873;28;19944;-87
2022/01/18 02:51:44;;;;;;;;;;;12.30;62.80;;;;;;5004284;28;19918;-87
2022/01/18 02:54:11;;;;;;;;;;;12.30;62.80;;;;;;5014322;28;19909;-88
2022/01/18 02:56:41;;;;;;;;;;;12.30;62.80;;;;;;5011667;28;19984;-87
2022/01/18 02:59:23;;;;;;;;;;;12.30;62.80;;;;;;5007804;28;20023;-88
2022/01/18 03:04:37;;;;;;;;;;;12.40;62.80;;;;;;5013360;28;19924;-88
2022/01/18 03:07:03;;;;;;;;;;;12.30;62.90;;;;;;5004566;28;19964;-87
2022/01/18 03:09:28;;;;;;;;;;;12.40;62.90;;;;;;5009773;28;19940;-87
2022/01/18 03:11:54;;;;;;;;;;;12.40;62.90;;;;;;5013124;28;20400;-88
2022/01/18 03:14:19;;;;;;;;;;;12.40;62.80;;;;;;5008591;28;19917;-88
2022/01/18 03:16:45;;;;;;;;;;;12.40;62.80;;;;;;5023248;28;20016;-88
2022/01/18 03:19:10;;;;;;;;;;;12.40;62.90;;;;;;5019576;28;20408;-87
2022/01/18 03:21:36;;;;;;;;;;;12.40;62.90;;;;;;5010686;28;19995;-88
2022/01/18 03:24:43;;;;;;;;;;;12.40;62.90;;;;;;5029659;28;19920;-87
2022/01/18 03:29:50;;;;;;;;;;;12.40;63.00;;;;;;5023343;28;19924;-88
2022/01/18 03:32:15;;;;;;;;;;;12.40;63.00;;;;;;5019105;28;19918;-88
2022/01/18 03:34:40;;;;;;;;;;;12.40;63.00;;;;;;5007586;28;20229;-87
2022/01/18 03:37:06;;;;;;;;;;;12.40;62.90;;;;;;4991342;28;19935;-87
2022/01/18 03:39:32;;;;;;;;;;;12.40;62.90;;;;;;4999069;28;19917;-88
2022/01/18 03:42:18;;;;;;;;;;;12.40;62.80;;;;;;5009761;28;20372;-88
2022/01/18 03:44:44;;;;;;;;;;;12.50;62.90;;;;;;5010375;28;19914;-89
2022/01/18 03:47:12;;;;;;;;;;;12.40;62.90;;;;;;5010904;28;20004;-88
2022/01/18 03:49:37;;;;;;;;;;;12.40;63.00;;;;;;5011533;28;19933;-87
2022/01/18 03:52:03;;;;;;;;;;;12.40;63.10;;;;;;5003134;28;19924;-88
2022/01/18 03:54:29;;;;;;;;;;;12.40;63.10;;;;;;5022691;28;20343;-88
2022/01/18 03:56:54;;;;;;;;;;;12.40;63.00;;;;;;5014995;28;19925;-88
2022/01/18 03:59:19;;;;;;;;;;;12.50;63.10;;;;;;5029273;28;19917;-87
2022/01/18 04:01:45;;;;;;;;;;;12.50;63.00;;;;;;5000559;28;20365;-87
2022/01/18 04:04:10;;;;;;;;;;;12.50;63.00;;;;;;5025171;28;20437;-87
2022/01/18 04:06:36;;;;;;;;;;;12.50;63.10;;;;;;4997716;28;19925;-87
2022/01/18 04:09:02;;;;;;;;;;;12.50;63.00;;;;;;5000394;28;20004;-87
2022/01/18 04:11:27;;;;;;;;;;;12.50;63.10;;;;;;5016176;28;19922;-87
2022/01/18 04:13:53;;;;;;;;;;;12.50;63.10;;;;;;5024494;28;19936;-87
2022/01/18 04:16:19;;;;;;;;;;;12.50;62.80;;;;;;5007613;28;19972;-87
2022/01/18 04:18:57;;;;;;;;;;;12.50;62.80;;;;;;5005985;28;20012;-88
2022/01/18 04:26:57;;;;;;;;;;;12.50;63.20;;;;;;5019227;28;19939;-86
2022/01/18 04:29:23;;;;;;;;;;;12.50;63.30;;;;;;5017954;28;19916;-87
2022/01/18 04:31:48;;;;;;;;;;;12.50;63.40;;;;;;5017988;28;19924;-88
2022/01/18 04:34:14;;;;;;;;;;;12.60;63.30;;;;;;5017558;28;20093;-88
2022/01/18 04:36:40;;;;;;;;;;;12.50;63.30;;;;;;5018003;28;19921;-88
2022/01/18 04:39:05;;;;;;;;;;;12.60;63.30;;;;;;5017613;28;19909;-88
2022/01/18 04:41:31;;;;;;;;;;;12.60;63.30;;;;;;5017706;28;19918;-88
2022/01/18 04:49:10;;;;;;;;;;;12.60;63.30;;;;;;5035999;28;19919;-87
2022/01/18 04:51:37;;;;;;;;;;;12.50;63.40;;;;;;5035996;28;20280;-88
2022/01/18 04:54:05;;;;;;;;;;;12.50;63.40;;;;;;5035801;28;20361;-88
2022/01/18 04:58:59;;;;;;;;;;;12.50;63.30;;;;;;5028962;28;19921;-87
2022/01/18 05:01:25;;;;;;;;;;;12.50;63.40;;;;;;5004398;28;19925;-87
2022/01/18 05:03:51;;;;;;;;;;;12.50;63.40;;;;;;4997286;28;19917;-87
2022/01/18 05:06:18;;;;;;;;;;;12.50;63.40;;;;;;5001650;28;19926;-87
2022/01/18 05:08:44;;;;;;;;;;;12.50;63.40;;;;;;5001086;28;20348;-87
2022/01/18 05:11:13;;;;;;;;;;;12.50;63.40;;;;;;5004779;28;19921;-88
2022/01/18 05:24:39;;;;;;;;;;;12.50;63.60;;;;;;5027123;28;19918;-89
2022/01/18 05:27:05;;;;;;;;;;;12.50;63.60;;;;;;5016219;28;19916;-87
2022/01/18 05:29:30;;;;;;;;;;;12.60;63.50;;;;;;4998356;28;19961;-87
2022/01/18 05:31:56;;;;;;;;;;;12.60;63.50;;;;;;4997173;28;19910;-87
2022/01/18 05:34:21;;;;;;;;;;;12.60;63.50;;;;;;5023541;28;19921;-87
2022/01/18 05:36:47;;;;;;;;;;;12.60;63.50;;;;;;5036295;28;20303;-87
2022/01/18 05:39:13;;;;;;;;;;;12.60;63.50;;;;;;5036897;28;19917;-87
2022/01/18 05:41:39;;;;;;;;;;;12.70;63.40;;;;;;5038388;28;19925;-88
2022/01/18 05:44:05;;;;;;;;;;;12.70;63.40;;;;;;5009531;28;20023;-88
2022/01/18 05:46:31;;;;;;;;;;;12.70;63.40;;;;;;5033452;28;19927;-88
2022/01/18 05:49:00;;;;;;;;;;;12.70;63.30;;;;;;5036555;28;20024;-86
2022/01/18 05:51:26;;;;;;;;;;;12.70;63.30;;;;;;5017490;28;20385;-88
2022/01/18 05:53:52;;;;;;;;;;;12.70;63.30;;;;;;5013008;28;19919;-87
2022/01/18 05:56:18;;;;;;;;;;;12.70;63.40;;;;;;5016775;28;19989;-91
2022/01/18 05:58:45;;;;;;;;;;;12.70;63.30;;;;;;5019407;28;19910;-91
2022/01/18 06:01:14;;;;;;;;;;;12.80;63.30;;;;;;5012633;28;20293;-91
2022/01/18 06:04:03;;;;;;;;;;;12.70;63.20;;;;;;5011297;28;20128;-90
2022/01/18 06:09:10;;;;;;;;;;;12.80;63.20;;;;;;5042415;28;19959;-92
2022/01/18 06:11:35;;;;;;;;;;;12.70;63.30;;;;;;5023312;28;19913;-92
2022/01/18 06:14:01;;;;;;;;;;;12.80;63.30;;;;;;5022891;28;19910;-93
2022/01/18 06:16:29;;;;;;;;;;;12.80;63.30;;;;;;5039058;28;19932;-94
2022/01/18 06:18:54;;;;;;;;;;;12.80;63.30;;;;;;5016213;28;19942;-93
2022/01/18 06:21:20;;;;;;;;;;;12.80;63.20;;;;;;5011073;28;19913;-92
2022/01/18 06:23:46;;;;;;;;;;;12.80;63.20;;;;;;5017930;28;20443;-91
2022/01/18 06:26:15;;;;;;;;;;;12.80;63.30;;;;;;5006014;28;20022;-90
2022/01/18 06:28:41;;;;;;;;;;;12.80;63.20;;;;;;5025712;28;19924;-91
2022/01/18 06:31:06;;;;;;;;;;;12.90;63.20;;;;;;5038717;28;20784;-91
2022/01/18 06:33:32;;;;;;;;;;;12.90;63.20;;;;;;5023627;28;19928;-91
2022/01/18 06:35:57;;;;;;;;;;;12.90;63.20;;;;;;5016839;28;20016;-92
2022/01/18 06:38:23;;;;;;;;;;;12.90;63.20;;;;;;5014552;28;19921;-92
2022/01/18 06:40:49;;;;;;;;;;;12.90;63.20;;;;;;5009264;28;19916;-91
2022/01/18 06:43:15;;;;;;;;;;;12.90;63.20;;;;;;5016641;28;19927;-92
2022/01/18 06:45:43;;;;;;;;;;;12.90;63.20;;;;;;5023185;28;20362;-92
2022/01/18 06:48:09;;;;;;;;;;;12.90;63.10;;;;;;5007151;28;19906;-94
2022/01/18 06:50:35;;;;;;;;;;;12.90;63.20;;;;;;5020005;28;20393;-92
2022/01/18 06:53:00;;;;;;;;;;;12.90;63.20;;;;;;5046195;28;20320;-93
2022/01/18 06:55:26;;;;;;;;;;;12.90;63.10;;;;;;5042766;28;19912;-94
2022/01/18 06:57:52;;;;;;;;;;;12.90;63.10;;;;;;5039725;28;19924;-93
2022/01/18 07:00:18;;;;;;;;;;;12.90;63.00;;;;;;5016361;28;20020;-93
2022/01/18 07:02:44;;;;;;;;;;;12.80;63.00;;;;;;5013139;28;19969;-93
2022/01/18 07:05:11;;;;;;;;;;;12.80;63.00;;;;;;5009370;28;19936;-93
2022/01/18 07:07:37;;;;;;;;;;;12.80;63.10;;;;;;5015459;28;19926;-95
2022/01/18 07:10:03;;;;;;;;;;;12.80;63.00;;;;;;5020666;28;19936;-93
2022/01/18 07:12:33;;;;;;;;;;;12.80;63.20;;;;;;5007329;28;19928;-93
2022/01/18 07:14:58;;;;;;;;;;;12.80;63.20;;;;;;5022841;28;20021;-94
2022/01/18 07:17:23;;;;;;;;;;;12.90;63.10;;;;;;5026658;28;20028;-92
2022/01/18 07:19:49;;;;;;;;;;;12.90;63.20;;;;;;5034445;28;19909;-93
2022/01/18 07:22:14;;;;;;;;;;;12.80;63.20;;;;;;5024567;28;19917;-92
2022/01/18 07:24:43;;;;;;;;;;;12.80;63.30;;;;;;5033685;28;20463;-91
2022/01/18 07:27:09;;;;;;;;;;;12.90;63.20;;;;;;5014337;28;19944;-94
2022/01/18 07:29:35;;;;;;;;;;;12.90;63.20;;;;;;5005309;28;19909;-92
2022/01/18 07:32:01;;;;;;;;;;;12.90;63.30;;;;;;5039114;28;20371;-91
2022/01/18 07:34:27;;;;;;;;;;;12.90;63.30;;;;;;5043516;28;19913;-91
2022/01/18 07:36:53;;;;;;;;;;;12.90;63.40;;;;;;5016156;28;19964;-92
2022/01/18 07:39:18;;;;;;;;;;;12.90;63.40;;;;;;5034276;28;19912;-92
2022/01/18 07:41:44;;;;;;;;;;;12.90;63.40;;;;;;5009424;28;19913;-92
2022/01/18 07:44:09;;;;;;;;;;;13.00;63.50;;;;;;5021103;28;19982;-92
2022/01/18 07:46:35;;;;;;;;;;;13.00;63.50;;;;;;5017694;28;19956;-92
2022/01/18 07:49:00;;;;;;;;;;;13.00;63.40;;;;;;5017930;28;20004;-92
2022/01/18 07:51:26;;;;;;;;;;;13.00;63.40;;;;;;5012817;28;19917;-92
2022/01/18 07:53:51;;;;;;;;;;;13.00;63.40;;;;;;5037903;28;20373;-92
2022/01/18 07:56:17;;;;;;;;;;;13.00;63.20;;;;;;5028581;28;19916;-92
2022/01/18 07:58:42;;;;;;;;;;;13.00;63.20;;;;;;5009719;28;20298;-93
2022/01/18 08:01:08;;;;;;;;;;;12.90;63.20;;;;;;5027975;28;19921;-92
2022/01/18 08:03:33;;;;;;;;;;;13.00;63.40;;;;;;5034272;28;19928;-91
2022/01/18 08:05:59;;;;;;;;;;;13.00;63.50;;;;;;5029378;28;20335;-92
2022/01/18 08:08:26;;;;;;;;;;;13.00;63.60;;;;;;5028464;28;20354;-91
2022/01/18 08:10:52;;;;;;;;;;;13.10;63.60;;;;;;5017247;28;19917;-91
2022/01/18 08:13:17;;;;;;;;;;;13.10;63.70;;;;;;5001998;28;19948;-91
2022/01/18 08:15:44;;;;;;;;;;;13.20;63.70;;;;;;5027036;28;19924;-91
2022/01/18 08:18:14;;;;;;;;;;;13.20;63.70;;;;;;5038396;28;19921;-92
2022/01/18 08:20:40;;;;;;;;;;;13.30;63.60;;;;;;5033914;28;19909;-93
2022/01/18 08:23:05;;;;;;;;;;;13.40;63.60;;;;;;5036984;28;20395;-93
2022/01/18 08:25:30;;;;;;;;;;;13.40;63.60;;;;;;5013728;28;19909;-93
2022/01/18 08:27:57;;;;;;;;;;;13.40;63.60;;;;;;5003562;28;20258;-91
2022/01/18 08:30:22;;;;;;;;;;;13.50;63.60;;;;;;5017621;28;19913;-94
2022/01/18 08:32:48;;;;;;;;;;;13.50;63.60;;;;;;5013027;28;19980;-91
2022/01/18 08:35:14;;;;;;;;;;;13.60;63.60;;;;;;5050052;28;19917;-93
2022/01/18 08:37:40;;;;;;;;;;;13.60;63.60;;;;;;5017227;28;20391;-93
2022/01/18 08:40:08;;;;;;;;;;;13.70;63.60;;;;;;5013824;28;19956;-92
2022/01/18 08:42:34;;;;;;;;;;;13.70;63.60;;;;;;5035188;28;19902;-92
2022/01/18 08:45:00;;;;;;;;;;;13.70;63.60;;;;;;5010715;28;19917;-91
2022/01/18 08:47:25;;;;;;;;;;;13.80;63.50;;;;;;5009639;28;20301;-93
2022/01/18 08:49:51;;;;;;;;;;;13.80;63.50;;;;;;5030208;28;19925;-92
2022/01/18 08:52:17;;;;;;;;;;;13.80;63.50;;;;;;5010890;28;19921;-94
2022/01/18 08:54:43;;;;;;;;;;;13.80;63.60;;;;;;5023067;28;20353;-92
2022/01/18 08:57:12;;;;;;;;;;;13.90;63.60;;;;;;5017851;28;19917;-92
2022/01/18 08:59:38;;;;;;;;;;;13.90;63.60;;;;;;5025883;28;19926;-93
2022/01/18 09:02:04;;;;;;;;;;;13.90;63.50;;;;;;5024174;28;19929;-93
2022/01/18 09:04:29;;;;;;;;;;;14.00;63.50;;;;;;5007842;28;19925;-92
2022/01/18 09:06:56;;;;;;;;;;;14.00;63.60;;;;;;5028801;28;19929;-92
2022/01/18 09:09:22;;;;;;;;;;;14.00;63.60;;;;;;5007563;28;20180;-91
2022/01/18 09:11:48;;;;;;;;;;;14.10;63.70;;;;;;5011062;28;20320;-91
2022/01/18 09:14:14;;;;;;;;;;;14.20;63.80;;;;;;5044624;28;19921;-92
2022/01/18 09:16:39;;;;;;;;;;;14.20;63.70;;;;;;5020705;28;19917;-94
2022/01/18 09:19:05;;;;;;;;;;;14.30;63.60;;;;;;5009065;28;19924;-92
2022/01/18 09:21:32;;;;;;;;;;;14.30;63.80;;;;;;5014309;28;19933;-93
2022/01/18 09:23:58;;;;;;;;;;;14.40;63.80;;;;;;5020147;28;19921;-93
2022/01/18 09:26:23;;;;;;;;;;;14.40;63.70;;;;;;5023679;28;19917;-92
2022/01/18 09:28:49;;;;;;;;;;;14.50;63.60;;;;;;5041260;28;20368;-92
2022/01/18 09:31:14;;;;;;;;;;;14.50;63.60;;;;;;5019296;28;19968;-94
2022/01/18 09:33:40;;;;;;;;;;;14.60;63.60;;;;;;5007022;28;19909;-90
2022/01/18 09:36:06;;;;;;;;;;;14.70;63.80;;;;;;5007992;28;19909;-91
2022/01/18 09:38:31;;;;;;;;;;;14.70;63.70;;;;;;5004676;28;19921;-92
2022/01/18 09:40:58;;;;;;;;;;;14.80;63.90;;;;;;5016213;28;19917;-93
2022/01/18 09:43:27;;;;;;;;;;;14.90;64.00;;;;;;5045797;28;20361;-92
2022/01/18 09:45:52;;;;;;;;;;;14.90;63.90;;;;;;5039426;28;19995;-92
2022/01/18 09:48:18;;;;;;;;;;;15.00;63.50;;;;;;5017620;28;20377;-93
2022/01/18 09:50:44;;;;;;;;;;;15.00;63.30;;;;;;5017205;28;20403;-92
2022/01/18 09:53:11;;;;;;;;;;;15.00;63.30;;;;;;5010298;28;19916;-94
2022/01/18 09:55:40;;;;;;;;;;;15.10;63.40;;;;;;5029265;28;19925;-96
2022/01/18 09:58:07;;;;;;;;;;;15.10;63.50;;;;;;5003555;28;20039;-92
2022/01/18 10:00:34;;;;;;;;;;;15.20;63.50;;;;;;5013312;28;19925;-94
2022/01/18 10:03:00;;;;;;;;;;;15.20;63.60;;;;;;5006390;28;19967;-91
2022/01/18 10:05:28;;;;;;;;;;;15.30;63.30;;;;;;5012139;28;19917;-92
2022/01/18 10:07:54;;;;;;;;;;;15.30;63.20;;;;;;5038412;28;19920;-94
2022/01/18 10:10:20;;;;;;;;;;;15.40;63.20;;;;;;5025502;28;19916;-93
2022/01/18 10:12:55;;;;;;;;;;;15.40;63.10;;;;;;5054857;28;20394;-92
2022/01/18 10:15:20;;;;;;;;;;;15.40;63.20;;;;;;5020526;28;19997;-93
2022/01/18 10:17:45;;;;;;;;;;;15.50;63.10;;;;;;5034420;28;19949;-92
2022/01/18 10:20:14;;;;;;;;;;;15.50;63.30;;;;;;5017868;28;19913;-93
2022/01/18 10:22:42;;;;;;;;;;;15.60;63.60;;;;;;5008090;28;19918;-93
2022/01/18 10:25:18;;;;;;;;;;;15.70;63.80;;;;;;5046836;28;19951;-94
2022/01/18 10:27:47;;;;;;;;;;;15.70;63.70;;;;;;5040303;28;19913;-93
2022/01/18 10:30:20;;;;;;;;;;;15.80;63.60;;;;;;5038862;28;20019;-93
2022/01/18 10:33:00;;;;;;;;;;;15.90;63.40;;;;;;5020504;28;19925;-93
2022/01/18 10:35:27;;;;;;;;;;;15.80;63.20;;;;;;5003779;28;20431;-92
2022/01/18 10:37:52;;;;;;;;;;;15.90;63.00;;;;;;5006119;28;19997;-93
2022/01/18 10:40:18;;;;;;;;;;;16.00;63.10;;;;;;5031850;28;19984;-94
2022/01/18 10:42:47;;;;;;;;;;;16.00;63.50;;;;;;5026881;28;19919;-94
2022/01/18 10:45:22;;;;;;;;;;;16.10;63.50;;;;;;5041412;28;20016;-93
2022/01/18 10:47:49;;;;;;;;;;;16.20;63.20;;;;;;5025188;28;19912;-94
2022/01/18 10:50:16;;;;;;;;;;;16.30;63.00;;;;;;5024804;28;19921;-93
2022/01/18 10:52:42;;;;;;;;;;;16.30;63.20;;;;;;5043279;28;19948;-93
2022/01/18 10:55:13;;;;;;;;;;;16.30;63.00;;;;;;5018953;28;19918;-93
2022/01/18 10:57:39;;;;;;;;;;;16.30;62.30;;;;;;5007768;28;20418;-93
2022/01/18 11:00:10;;;;;;;;;;;16.20;62.20;;;;;;5025788;28;19921;-93
2022/01/18 11:02:42;;;;;;;;;;;16.20;61.90;;;;;;5011810;28;19913;-92
2022/01/18 11:05:27;;;;;;;;;;;16.20;62.50;;;;;;5022789;28;19921;-92
2022/01/18 11:07:53;;;;;;;;;;;16.20;62.60;;;;;;5012105;28;19913;-93
2022/01/18 11:10:20;;;;;;;;;;;16.20;62.80;;;;;;5034460;28;19952;-94
2022/01/18 11:13:03;;;;;;;;;;;16.30;63.10;;;;;;5009868;28;20377;-94
2022/01/18 11:15:36;;;;;;;;;;;16.30;63.20;;;;;;5009936;28;19909;-93
2022/01/18 11:18:06;;;;;;;;;;;16.40;62.70;;;;;;5027383;28;20012;-93
2022/01/18 11:20:32;;;;;;;;;;;16.40;63.00;;;;;;5025752;28;20004;-93
2022/01/18 11:22:58;;;;;;;;;;;16.60;62.80;;;;;;5005732;28;20361;-92
2022/01/18 11:25:23;;;;;;;;;;;16.50;62.40;;;;;;5028724;28;19921;-93
2022/01/18 11:27:51;;;;;;;;;;;16.50;61.90;;;;;;5034504;28;19952;-95
2022/01/18 11:30:18;;;;;;;;;;;16.50;61.90;;;;;;5044833;28;19939;-94
2022/01/18 11:32:44;;;;;;;;;;;16.50;62.20;;;;;;5042531;28;19917;-94
2022/01/18 11:35:19;;;;;;;;;;;16.50;62.40;;;;;;5033713;28;19924;-94
2022/01/18 11:37:54;;;;;;;;;;;16.40;62.70;;;;;;5039337;28;19913;-94
2022/01/18 11:40:23;;;;;;;;;;;16.50;62.60;;;;;;5029004;28;20775;-93
2022/01/18 11:42:53;;;;;;;;;;;16.50;62.40;;;;;;5027177;28;19916;-96
2022/01/18 11:45:29;;;;;;;;;;;16.50;63.00;;;;;;5031701;28;19917;-95
2022/01/18 11:48:11;;;;;;;;;;;16.60;63.20;;;;;;5053344;28;19909;-93
2022/01/18 11:50:49;;;;;;;;;;;16.70;63.40;;;;;;5041774;28;20389;-94
2022/01/18 11:53:26;;;;;;;;;;;16.90;63.60;;;;;;5038245;28;19927;-96
2022/01/18 11:55:56;;;;;;;;;;;17.10;63.60;;;;;;5024322;28;20352;-94
2022/01/18 11:58:23;;;;;;;;;;;17.20;63.50;;;;;;5052402;28;19912;-95
2022/01/18 12:00:55;;;;;;;;;;;17.40;63.40;;;;;;5020947;28;20432;-96
2022/01/18 12:03:23;;;;;;;;;;;17.50;63.50;;;;;;5043708;28;19964;-95
2022/01/18 12:05:49;;;;;;;;;;;17.70;63.40;;;;;;5015675;28;19917;-93
2022/01/18 12:08:38;;;;;;;;;;;17.80;63.20;;;;;;5021460;28;20094;-94
2022/01/18 12:11:06;;;;;;;;;;;17.90;63.20;;;;;;5002862;28;19956;-95
2022/01/18 12:13:37;;;;;;;;;;;18.10;63.30;;;;;;5019110;28;19913;-96
2022/01/18 12:16:10;;;;;;;;;;;18.20;63.10;;;;;;5023246;28;19919;-94
2022/01/18 12:18:48;;;;;;;;;;;18.30;62.90;;;;;;5023217;28;19992;-92
2022/01/18 12:21:20;;;;;;;;;;;18.50;62.50;;;;;;5030212;28;19939;-95
2022/01/18 12:24:11;;;;;;;;;;;18.50;62.30;;;;;;5018781;28;19952;-94
2022/01/18 12:26:45;;;;;;;;;;;18.40;61.70;;;;;;5035196;28;19944;-93
2022/01/18 12:32:39;;;;;;;;;;;18.00;62.00;;;;;;5033591;28;19917;-88
2022/01/18 12:35:17;;;;;;;;;;;17.90;62.40;;;;;;5029637;28;19921;-87
2022/01/18 12:37:43;;;;;;;;;;;17.90;62.80;;;;;;5036820;28;19917;-88
2022/01/18 12:40:11;;;;;;;;;;;17.90;62.70;;;;;;5044460;28;19913;-88
2022/01/18 12:45:05;;;;;;;;;;;18.00;62.60;;;;;;5048744;28;20384;-88
2022/01/18 12:47:30;;;;;;;;;;;18.00;62.60;;;;;;5019636;28;20020;-88
2022/01/18 12:49:58;;;;;;;;;;;18.00;62.70;;;;;;5042814;28;19940;-88
2022/01/18 12:52:24;;;;;;;;;;;17.90;62.60;;;;;;5041411;28;19919;-89
2022/01/18 12:54:49;;;;;;;;;;;17.90;62.20;;;;;;5040255;28;20015;-88
2022/01/18 12:57:17;;;;;;;;;;;17.80;62.40;;;;;;5036472;28;20019;-88
2022/01/18 13:00:00;;;;;;;;;;;17.80;62.60;;;;;;5031229;28;19921;-88
2022/01/18 13:02:26;;;;;;;;;;;17.70;62.30;;;;;;5027970;28;19975;-89
2022/01/18 13:04:56;;;;;;;;;;;17.70;62.60;;;;;;5019973;28;20360;-89
2022/01/18 13:07:21;;;;;;;;;;;17.60;62.80;;;;;;5010946;28;19928;-88
2022/01/18 13:09:53;;;;;;;;;;;17.60;62.70;;;;;;5025388;28;19916;-89
2022/01/18 13:12:27;;;;;;;;;;;17.50;62.60;;;;;;5008299;28;19975;-88
2022/01/18 13:14:55;;;;;;;;;;;17.50;62.30;;;;;;5018531;28;19935;-88
2022/01/18 13:23:00;;;;;;;;;;;17.30;62.50;;;;;;5048275;28;19924;-92
2022/01/18 13:25:29;;;;;;;;;;;17.30;62.60;;;;;;5024479;28;19921;-93
2022/01/18 13:28:02;;;;;;;;;;;17.30;62.50;;;;;;5021217;28;19919;-94
2022/01/18 13:30:29;;;;;;;;;;;17.20;62.70;;;;;;5025326;28;19956;-94
2022/01/18 13:32:58;;;;;;;;;;;17.20;62.30;;;;;;5025943;28;19927;-93
2022/01/18 13:35:25;;;;;;;;;;;17.10;62.40;;;;;;5006485;28;19920;-93
2022/01/18 13:37:51;;;;;;;;;;;17.00;62.50;;;;;;5028096;28;19975;-91
2022/01/18 13:40:20;;;;;;;;;;;17.00;62.60;;;;;;5055646;28;19923;-93
2022/01/18 13:42:47;;;;;;;;;;;17.00;62.50;;;;;;5030185;28;20595;-92
2022/01/18 13:45:24;;;;;;;;;;;17.00;62.50;;;;;;5029566;28;19917;-92
2022/01/18 13:47:51;;;;;;;;;;;17.00;62.70;;;;;;5043509;28;20432;-92
2022/01/18 13:50:46;;;;;;;;;;;17.00;62.60;;;;;;5030684;28;20291;-92
2022/01/18 13:53:35;;;;;;;;;;;17.00;62.90;;;;;;5018319;28;20364;-91
2022/01/18 13:56:11;;;;;;;;;;;17.00;62.70;;;;;;5007709;28;19920;-93
2022/01/18 13:58:39;;;;;;;;;;;17.00;63.00;;;;;;5010771;28;19925;-93
2022/01/18 14:01:28;;;;;;;;;;;17.00;63.00;;;;;;5025700;28;19917;-92
2022/01/18 14:03:55;;;;;;;;;;;16.90;62.90;;;;;;5013851;28;19963;-94
2022/01/18 14:06:31;;;;;;;;;;;16.90;62.90;;;;;;5007226;28;20006;-91
2022/01/18 14:08:57;;;;;;;;;;;16.90;62.80;;;;;;5034553;28;19923;-92
2022/01/18 14:11:23;;;;;;;;;;;16.80;62.70;;;;;;5009798;28;19917;-92
2022/01/18 14:13:49;;;;;;;;;;;16.90;62.60;;;;;;5007324;28;19940;-93
2022/01/18 14:16:23;;;;;;;;;;;16.90;62.70;;;;;;5012878;28;20324;-94
2022/01/18 14:18:49;;;;;;;;;;;16.80;62.40;;;;;;5022680;28;19917;-92
2022/01/18 14:21:27;;;;;;;;;;;16.90;62.50;;;;;;5018499;28;20325;-94
2022/01/18 14:24:25;;;;;;;;;;;16.80;62.30;;;;;;5030316;28;20004;-93
2022/01/18 14:26:51;;;;;;;;;;;16.80;62.20;;;;;;4994756;28;19914;-93
2022/01/18 14:29:18;;;;;;;;;;;16.70;62.20;;;;;;5004361;28;19980;-92
2022/01/18 14:31:55;;;;;;;;;;;16.70;62.30;;;;;;5025095;28;19913;-91
2022/01/18 14:34:46;;;;;;;;;;;16.70;62.30;;;;;;5022248;28;19967;-94
2022/01/18 14:37:13;;;;;;;;;;;16.60;62.10;;;;;;5012891;28;19925;-92
2022/01/18 14:39:50;;;;;;;;;;;16.60;62.20;;;;;;5026444;28;19917;-92
2022/01/18 14:42:16;;;;;;;;;;;16.60;62.20;;;;;;5008670;28;20571;-92
2022/01/18 14:47:25;;;;;;;;;;;16.50;62.10;;;;;;5052512;28;20463;-92
2022/01/18 14:49:51;;;;;;;;;;;16.40;62.10;;;;;;5013749;28;19917;-91
2022/01/18 14:52:17;;;;;;;;;;;16.30;61.30;;;;;;5050076;28;19924;-90
2022/01/18 14:54:42;;;;;;;;;;;16.30;62.00;;;;;;5048745;28;19921;-90
2022/01/18 14:57:12;;;;;;;;;;;16.20;62.10;;;;;;5012709;28;19925;-91
2022/01/18 14:59:37;;;;;;;;;;;16.20;62.10;;;;;;5023396;28;19948;-90
2022/01/18 15:02:03;;;;;;;;;;;16.20;62.00;;;;;;5019245;28;19983;-90
2022/01/18 15:04:29;;;;;;;;;;;16.10;62.10;;;;;;5010434;28;20361;-90
2022/01/18 15:06:54;;;;;;;;;;;16.10;61.50;;;;;;5026146;28;20005;-90
2022/01/18 15:09:20;;;;;;;;;;;16.00;61.10;;;;;;5038415;28;19987;-90
2022/01/18 15:11:45;;;;;;;;;;;16.00;61.40;;;;;;5014726;28;20076;-91
2022/01/18 15:14:11;;;;;;;;;;;15.90;61.70;;;;;;5020089;28;19917;-91
2022/01/18 15:16:36;;;;;;;;;;;15.90;61.50;;;;;;5039389;28;20371;-92
2022/01/18 15:19:02;;;;;;;;;;;15.80;61.80;;;;;;5012041;28;19914;-92
2022/01/18 15:21:27;;;;;;;;;;;15.80;61.90;;;;;;5010482;28;19964;-90
2022/01/18 15:23:53;;;;;;;;;;;15.70;61.80;;;;;;5002961;28;19956;-92
2022/01/18 15:26:18;;;;;;;;;;;15.70;61.70;;;;;;5043822;28;20709;-90
2022/01/18 15:28:44;;;;;;;;;;;15.70;61.70;;;;;;5020088;28;20482;-91
2022/01/18 15:31:09;;;;;;;;;;;15.60;61.50;;;;;;5024942;28;19913;-91
2022/01/18 15:33:35;;;;;;;;;;;15.60;61.80;;;;;;5009270;28;19952;-92
2022/01/18 15:36:01;;;;;;;;;;;15.50;61.80;;;;;;5023197;28;19917;-94
2022/01/18 15:38:38;;;;;;;;;;;15.50;61.40;;;;;;5001288;28;19917;-96